createdAt,value
2019-02-26T00:01:07.910Z,67.15
2019-02-26T00:03:36.710Z,68.43
2019-02-26T00:06:06.128Z,68.32
2019-02-26T00:08:34.987Z,67.57
2019-02-26T00:11:06.092Z,67.18
2019-02-26T00:13:36.043Z,66.92
2019-02-26T00:16:05.581Z,67.27
2019-02-26T00:18:32.563Z,67.42
2019-02-26T00:21:02.859Z,67.10
2019-02-26T00:23:30.827Z,66.55
2019-02-26T00:26:00.627Z,66.12
2019-02-26T00:28:29.452Z,66.81
2019-02-26T00:30:59.945Z,65.90
2019-02-26T00:33:28.955Z,65.57
2019-02-26T00:35:56.930Z,65.89
2019-02-26T00:38:25.844Z,66.08
2019-02-26T00:40:55.499Z,66.31
2019-02-26T00:43:26.037Z,66.12
2019-02-26T00:45:57.960Z,65.82
2019-02-26T00:48:23.002Z,66.24
2019-02-26T00:50:52.665Z,66.64
2019-02-26T00:53:23.202Z,66.33
2019-02-26T00:55:51.627Z,66.27
2019-02-26T00:58:19.280Z,66.11
2019-02-26T01:00:48.100Z,66.24
2019-02-26T01:03:16.886Z,65.72
2019-02-26T01:05:45.912Z,66.48
2019-02-26T01:08:19.722Z,65.87
2019-02-26T01:10:46.541Z,66.61
2019-02-26T01:13:15.350Z,67.26
2019-02-26T01:15:51.326Z,66.64
2019-02-26T01:18:22.413Z,67.62
2019-02-26T01:20:52.293Z,68.51
2019-02-26T01:23:21.607Z,67.40
2019-02-26T01:25:49.912Z,67.87
2019-02-26T01:28:20.397Z,68.20
2019-02-26T01:30:48.909Z,67.94
2019-02-26T01:33:16.531Z,67.52
2019-02-26T01:35:45.369Z,69.22
2019-02-26T01:38:16.478Z,68.32
2019-02-26T01:40:46.533Z,67.38
2019-02-26T01:43:13.777Z,67.88
2019-02-26T01:45:44.041Z,67.77
2019-02-26T01:48:16.084Z,67.71
2019-02-26T01:50:43.688Z,68.09
2019-02-26T01:53:14.594Z,67.70
2019-02-26T01:55:43.732Z,67.86
2019-02-26T01:58:11.004Z,67.68
2019-02-26T02:00:40.836Z,67.85
2019-02-26T02:03:10.291Z,67.73
2019-02-26T02:05:39.241Z,67.93
2019-02-26T02:08:11.001Z,68.13
2019-02-26T02:10:37.527Z,69.06
2019-02-26T02:13:07.592Z,69.40
2019-02-26T02:15:37.847Z,70.93
2019-02-26T02:18:06.186Z,70.75
2019-02-26T02:20:34.863Z,71.11
2019-02-26T02:23:05.368Z,71.40
2019-02-26T02:25:35.241Z,70.43
2019-02-26T02:28:04.366Z,69.51
2019-02-26T02:30:35.537Z,69.82
2019-02-26T02:33:02.097Z,69.67
2019-02-26T02:35:30.408Z,69.50
2019-02-26T02:38:01.983Z,69.34
2019-02-26T02:40:27.982Z,69.19
2019-02-26T02:42:56.762Z,69.02
2019-02-26T02:45:25.563Z,69.23
2019-02-26T02:47:57.696Z,69.90
2019-02-26T02:50:23.172Z,69.78
2019-02-26T02:52:53.490Z,70.10
2019-02-26T02:55:21.955Z,69.70
2019-02-26T02:57:53.095Z,69.64
2019-02-26T03:00:22.747Z,69.57
2019-02-26T03:02:50.114Z,68.86
2019-02-26T03:05:17.576Z,69.69
2019-02-26T03:07:50.756Z,69.77
2019-02-26T03:10:16.901Z,69.32
2019-02-26T03:12:51.199Z,69.50
2019-02-26T03:15:14.627Z,68.79
2019-02-26T03:17:43.713Z,69.75
2019-02-26T03:20:13.166Z,70.03
2019-02-26T03:22:45.189Z,69.66
2019-02-26T03:25:14.309Z,69.55
2019-02-26T03:27:42.660Z,68.69
2019-02-26T03:30:20.274Z,69.29
2019-02-26T03:32:45.962Z,69.77
2019-02-26T03:35:13.262Z,69.50
2019-02-26T03:37:40.845Z,68.96
2019-02-26T03:40:10.744Z,70.12
2019-02-26T03:42:41.602Z,70.89
2019-02-26T03:45:09.860Z,70.37
2019-02-26T03:47:40.607Z,70.77
2019-02-26T03:50:09.501Z,70.14
2019-02-26T03:52:38.169Z,70.55
2019-02-26T03:55:09.470Z,71.11
2019-02-26T03:57:40.939Z,70.18
2019-02-26T04:00:08.711Z,70.58
2019-02-26T04:02:39.178Z,71.60
2019-02-26T04:05:09.111Z,71.19
2019-02-26T04:07:37.880Z,70.91
2019-02-26T04:10:07.203Z,71.20
2019-02-26T04:12:39.295Z,71.75
2019-02-26T04:15:06.767Z,71.41
2019-02-26T04:17:39.510Z,71.63
2019-02-26T04:20:07.561Z,70.92
2019-02-26T04:22:39.199Z,71.56
2019-02-26T04:25:10.608Z,71.89
2019-02-26T04:27:48.334Z,71.49
2019-02-26T04:30:34.051Z,71.82
2019-02-26T04:33:11.629Z,72.14
2019-02-26T04:35:50.114Z,71.26
2019-02-26T04:38:43.247Z,71.82
2019-02-26T04:41:20.378Z,71.91
2019-02-26T04:46:05.056Z,72.19
2019-02-26T04:48:34.347Z,71.18
2019-02-26T04:51:02.340Z,71.94
2019-02-26T04:53:31.925Z,72.29
2019-02-26T04:56:02.832Z,71.83
2019-02-26T04:58:29.447Z,72.17
2019-02-26T05:00:58.323Z,73.63
2019-02-26T05:03:27.110Z,74.35
2019-02-26T05:05:57.208Z,74.51
2019-02-26T05:08:24.719Z,74.20
2019-02-26T05:10:57.247Z,73.55
2019-02-26T05:13:25.223Z,74.79
2019-02-26T05:15:53.006Z,75.17
2019-02-26T05:18:23.329Z,74.31
2019-02-26T05:20:52.346Z,73.90
2019-02-26T05:23:23.329Z,73.63
2019-02-26T05:25:50.719Z,73.93
2019-02-26T05:28:19.555Z,73.43
2019-02-26T05:30:51.301Z,73.38
2019-02-26T05:33:18.469Z,73.35
2019-02-26T05:35:48.874Z,72.91
2019-02-26T05:38:15.623Z,73.28
2019-02-26T05:40:45.299Z,73.55
2019-02-26T05:43:13.885Z,73.62
2019-02-26T05:45:43.207Z,73.58
2019-02-26T05:48:15.338Z,73.61
2019-02-26T05:50:44.639Z,73.69
2019-02-26T05:53:13.347Z,73.17
2019-02-26T05:55:42.237Z,73.79
2019-02-26T05:58:10.551Z,73.83
2019-02-26T06:00:39.923Z,73.78
2019-02-26T06:03:18.278Z,73.10
2019-02-26T06:05:45.931Z,73.10
2019-02-26T06:08:12.686Z,73.28
2019-02-26T06:10:41.523Z,73.54
2019-02-26T06:13:12.896Z,73.64
2019-02-26T06:15:39.122Z,73.27
2019-02-26T06:18:07.934Z,73.43
2019-02-26T06:20:37.342Z,73.59
2019-02-26T06:23:06.163Z,73.47
2019-02-26T06:25:35.003Z,73.80
2019-02-26T06:28:06.905Z,74.09
2019-02-26T06:30:32.760Z,73.44
2019-02-26T06:33:04.156Z,73.52
2019-02-26T06:35:31.552Z,73.42
2019-02-26T06:38:01.672Z,73.77
2019-02-26T06:40:28.355Z,73.04
2019-02-26T06:42:57.143Z,73.62
2019-02-26T06:45:25.995Z,74.06
2019-02-26T06:47:56.392Z,73.60
2019-02-26T06:50:24.241Z,73.96
2019-02-26T06:52:53.072Z,74.35
2019-02-26T06:55:23.816Z,73.95
2019-02-26T06:57:55.108Z,74.19
2019-02-26T07:00:23.909Z,73.92
2019-02-26T07:02:50.375Z,74.63
2019-02-26T07:05:19.174Z,75.11
2019-02-26T07:07:48.016Z,75.37
2019-02-26T07:10:21.488Z,75.75
2019-02-26T07:12:48.083Z,75.43
2019-02-26T07:15:15.091Z,75.42
2019-02-26T07:17:46.065Z,75.17
2019-02-26T07:20:12.711Z,75.07
2019-02-26T07:22:44.105Z,74.65
2019-02-26T07:25:13.986Z,75.14
2019-02-26T07:27:40.170Z,75.10
2019-02-26T07:30:09.037Z,74.87
2019-02-26T07:32:38.253Z,73.99
2019-02-26T07:35:08.803Z,74.03
2019-02-26T07:37:38.135Z,74.19
2019-02-26T07:40:08.766Z,73.53
2019-02-26T07:42:37.375Z,73.40
2019-02-26T07:45:14.369Z,73.93
2019-02-26T07:47:35.700Z,73.43
2019-02-26T07:50:04.649Z,73.46
2019-02-26T07:52:33.049Z,73.63
2019-02-26T07:55:00.551Z,73.08
2019-02-26T07:57:30.765Z,73.48
2019-02-26T08:00:00.230Z,72.62
2019-02-26T08:02:32.531Z,72.82
2019-02-26T08:04:59.609Z,72.29
2019-02-26T08:07:30.732Z,72.37
2019-02-26T08:09:57.820Z,72.12
2019-02-26T08:12:26.683Z,70.43
2019-02-26T08:14:55.471Z,68.17
2019-02-26T08:17:24.331Z,67.23
2019-02-26T08:19:53.096Z,66.13
2019-02-26T08:22:21.928Z,65.82
2019-02-26T08:24:52.709Z,63.62
2019-02-26T08:27:19.612Z,62.81
2019-02-26T08:29:49.450Z,61.36
2019-02-26T08:32:20.929Z,59.45
2019-02-26T08:34:48.078Z,58.59
2019-02-26T08:37:16.859Z,59.21
2019-02-26T08:39:45.673Z,59.52
2019-02-26T08:42:14.463Z,59.77
2019-02-26T08:44:46.223Z,58.93
2019-02-26T08:47:14.023Z,59.13
2019-02-26T08:49:43.436Z,58.08
2019-02-26T08:52:10.341Z,58.49
2019-02-26T08:54:39.166Z,57.79
2019-02-26T08:57:07.965Z,57.59
2019-02-26T08:59:36.809Z,57.34
2019-02-26T09:02:05.654Z,57.79
2019-02-26T09:04:35.164Z,57.65
2019-02-26T09:07:03.328Z,56.78
2019-02-26T09:09:32.823Z,56.34
2019-02-26T09:12:03.318Z,55.04
2019-02-26T09:14:34.428Z,55.94
2019-02-26T09:17:02.137Z,54.85
2019-02-26T09:19:32.410Z,54.85
2019-02-26T09:21:59.090Z,54.82
2019-02-26T09:24:27.929Z,54.43
2019-02-26T09:26:57.390Z,53.85
2019-02-26T09:29:25.616Z,53.09
2019-02-26T09:31:54.414Z,52.48
2019-02-26T09:34:25.975Z,51.58
2019-02-26T09:36:55.110Z,51.77
2019-02-26T09:39:22.141Z,51.44
2019-02-26T09:41:50.981Z,50.75
2019-02-26T09:44:19.804Z,50.19
2019-02-26T09:46:49.542Z,49.52
2019-02-26T09:49:18.367Z,49.93
2019-02-26T09:51:48.086Z,48.49
2019-02-26T09:54:17.782Z,48.33
2019-02-26T09:56:45.752Z,47.52
2019-02-26T09:59:14.754Z,47.94
2019-02-26T10:01:43.431Z,47.05
2019-02-26T10:04:13.032Z,48.99
2019-02-26T10:06:44.845Z,48.99
2019-02-26T10:09:15.303Z,48.00
2019-02-26T10:11:42.428Z,46.94
2019-02-26T10:14:10.309Z,46.98
2019-02-26T10:16:39.251Z,46.65
2019-02-26T10:19:10.123Z,46.42
2019-02-26T10:21:39.861Z,46.01
2019-02-26T10:24:06.963Z,44.29
2019-02-26T10:26:38.299Z,44.61
2019-02-26T10:29:05.351Z,43.42
2019-02-26T10:31:34.746Z,43.68
2019-02-26T10:34:07.878Z,42.36
2019-02-26T10:36:34.713Z,41.43
2019-02-26T10:39:02.828Z,42.45
2019-02-26T10:41:34.247Z,42.08
2019-02-26T10:44:01.311Z,42.25
2019-02-26T10:46:32.240Z,42.05
2019-02-26T10:48:59.111Z,41.93
2019-02-26T10:51:29.411Z,41.16
2019-02-26T10:54:00.013Z,41.33
2019-02-26T10:56:28.701Z,41.27
2019-02-26T10:59:01.929Z,40.57
2019-02-26T11:01:27.594Z,41.06
2019-02-26T11:03:55.190Z,41.80
2019-02-26T11:06:22.585Z,41.16
2019-02-26T11:08:53.039Z,40.35
2019-02-26T11:11:20.625Z,40.90
2019-02-26T11:13:53.236Z,39.74
2019-02-26T11:16:24.644Z,40.61
2019-02-26T11:18:50.012Z,40.42
2019-02-26T11:21:18.946Z,40.00
2019-02-26T11:23:48.003Z,39.97
2019-02-26T11:26:18.731Z,39.03
2019-02-26T11:28:47.774Z,38.52
2019-02-26T11:31:16.499Z,38.74
2019-02-26T11:33:43.428Z,36.02
2019-02-26T11:36:15.614Z,37.20
2019-02-26T11:38:44.502Z,36.40
2019-02-26T11:41:12.360Z,37.03
2019-02-26T11:43:42.103Z,35.57
2019-02-26T11:46:10.690Z,35.55
2019-02-26T11:48:40.056Z,34.72
2019-02-26T11:51:11.941Z,36.11
2019-02-26T11:53:39.023Z,34.64
2019-02-26T11:56:08.195Z,35.51
2019-02-26T11:58:37.993Z,34.71
2019-02-26T12:01:14.800Z,36.16
2019-02-26T12:03:44.011Z,35.95
2019-02-26T12:06:12.603Z,35.00
2019-02-26T12:08:43.098Z,37.38
2019-02-26T12:11:15.189Z,37.45
2019-02-26T12:13:42.303Z,37.11
2019-02-26T12:16:08.856Z,37.42
2019-02-26T12:18:39.130Z,37.02
2019-02-26T12:21:07.889Z,37.22
2019-02-26T12:23:39.731Z,37.83
2019-02-26T12:26:07.818Z,36.21
2019-02-26T12:28:38.386Z,35.41
2019-02-26T12:31:08.055Z,34.45
2019-02-26T12:33:34.269Z,35.93
2019-02-26T12:36:05.226Z,35.53
2019-02-26T12:38:36.201Z,34.65
2019-02-26T12:41:00.891Z,34.88
2019-02-26T12:43:30.193Z,35.43
2019-02-26T12:46:01.378Z,35.17
2019-02-26T12:48:28.491Z,34.84
2019-02-26T12:50:58.339Z,34.24
2019-02-26T12:53:26.180Z,33.28
2019-02-26T12:55:56.637Z,33.33
2019-02-26T12:58:26.799Z,31.92
2019-02-26T13:00:53.190Z,33.01
2019-02-26T13:03:22.623Z,34.41
2019-02-26T13:05:51.731Z,32.72
2019-02-26T13:08:23.881Z,33.01
2019-02-26T13:10:55.337Z,33.26
2019-02-26T13:13:20.069Z,34.23
2019-02-26T13:15:48.847Z,33.61
2019-02-26T13:18:17.924Z,34.14
2019-02-26T13:20:52.132Z,33.86
2019-02-26T13:23:20.120Z,33.31
2019-02-26T13:25:44.412Z,33.21
2019-02-26T13:28:13.340Z,33.17
2019-02-26T13:30:42.643Z,33.68
2019-02-26T13:33:11.452Z,33.74
2019-02-26T13:35:45.615Z,34.70
2019-02-26T13:38:11.095Z,34.06
2019-02-26T13:40:39.928Z,33.01
2019-02-26T13:43:09.056Z,33.02
2019-02-26T13:45:37.875Z,34.11
2019-02-26T13:48:06.714Z,34.88
2019-02-26T13:50:35.635Z,34.91
2019-02-26T13:53:04.481Z,32.71
2019-02-26T13:55:34.448Z,33.97
2019-02-26T13:58:11.377Z,32.67
2019-02-26T14:00:33.555Z,32.99
2019-02-26T14:03:04.094Z,33.70
2019-02-26T14:05:37.869Z,34.14
2019-02-26T14:08:00.741Z,33.66
2019-02-26T14:10:30.127Z,33.25
2019-02-26T14:12:58.978Z,33.87
2019-02-26T14:15:27.922Z,33.48
2019-02-26T14:17:56.910Z,33.71
2019-02-26T14:20:26.726Z,34.05
2019-02-26T14:22:55.520Z,34.24
2019-02-26T14:25:25.296Z,33.16
2019-02-26T14:27:55.415Z,34.51
2019-02-26T14:30:24.234Z,33.76
2019-02-26T14:32:53.033Z,34.50
2019-02-26T14:35:21.903Z,33.97
2019-02-26T14:37:50.780Z,33.89
2019-02-26T14:40:23.459Z,34.20
2019-02-26T14:42:54.948Z,34.42
2019-02-26T14:45:24.434Z,35.01
2019-02-26T14:47:53.302Z,34.18
2019-02-26T14:50:23.506Z,34.05
2019-02-26T14:52:52.322Z,34.47
2019-02-26T14:55:21.122Z,34.18
2019-02-26T14:57:50.258Z,33.89
2019-02-26T15:00:21.622Z,34.81
2019-02-26T15:02:50.462Z,34.69
2019-02-26T15:05:19.333Z,34.23
2019-02-26T15:07:48.951Z,33.60
2019-02-26T15:10:21.336Z,34.59
2019-02-26T15:12:52.168Z,33.69
2019-02-26T15:15:22.672Z,34.00
2019-02-26T15:17:51.502Z,34.70
2019-02-26T15:20:22.282Z,34.35
2019-02-26T15:22:54.878Z,33.69
2019-02-26T15:25:24.158Z,33.73
2019-02-26T15:27:52.979Z,34.34
2019-02-26T15:30:21.781Z,33.93
2019-02-26T15:32:53.300Z,34.63
2019-02-26T15:35:22.191Z,34.08
2019-02-26T15:37:50.984Z,33.94
2019-02-26T15:40:20.817Z,34.37
2019-02-26T15:42:52.336Z,34.62
2019-02-26T15:45:20.858Z,34.37
2019-02-26T15:47:49.688Z,34.54
2019-02-26T15:50:18.695Z,35.64
2019-02-26T15:52:47.535Z,35.36
2019-02-26T15:55:17.676Z,35.55
2019-02-26T15:57:46.484Z,36.17
2019-02-26T16:00:18.491Z,36.13
2019-02-26T16:02:48.128Z,36.60
2019-02-26T16:05:18.945Z,36.51
2019-02-26T16:07:47.742Z,36.98
2019-02-26T16:10:16.624Z,36.40
2019-02-26T16:12:45.418Z,36.56
2019-02-26T16:15:14.840Z,37.03
2019-02-26T16:17:43.611Z,37.28
2019-02-26T16:20:15.235Z,37.00
2019-02-26T16:22:44.775Z,36.97
2019-02-26T16:25:13.602Z,37.46
2019-02-26T16:27:44.167Z,37.68
2019-02-26T16:30:18.626Z,38.12
2019-02-26T16:32:48.968Z,38.06
2019-02-26T16:35:18.031Z,37.71
2019-02-26T16:37:47.400Z,38.41
2019-02-26T16:40:17.962Z,38.61
2019-02-26T16:42:46.815Z,38.81
2019-02-26T16:45:17.268Z,39.50
2019-02-26T16:47:48.755Z,40.64
2019-02-26T16:50:17.936Z,40.53
2019-02-26T16:52:47.868Z,41.33
2019-02-26T16:55:17.253Z,41.39
2019-02-26T16:57:45.831Z,41.76
2019-02-26T17:00:20.546Z,41.56
2019-02-26T17:02:49.487Z,42.06
2019-02-26T17:05:18.524Z,42.20
2019-02-26T17:07:47.742Z,41.96
2019-02-26T17:10:17.809Z,42.22
2019-02-26T17:12:49.888Z,42.43
2019-02-26T17:15:24.004Z,42.64
2019-02-26T17:17:49.018Z,42.85
2019-02-26T17:20:19.549Z,43.20
2019-02-26T17:22:46.835Z,43.32
2019-02-26T17:25:16.179Z,43.37
2019-02-26T17:27:44.985Z,44.19
2019-02-26T17:30:13.859Z,44.28
2019-02-26T17:32:42.952Z,44.54
2019-02-26T17:35:11.806Z,44.47
2019-02-26T17:37:43.398Z,44.80
2019-02-26T17:40:12.863Z,45.60
2019-02-26T17:42:41.730Z,45.82
2019-02-26T17:45:14.072Z,46.48
2019-02-26T17:47:42.910Z,46.59
2019-02-26T17:50:14.662Z,47.20
2019-02-26T17:52:44.317Z,46.94
2019-02-26T17:55:13.208Z,47.24
2019-02-26T17:57:45.241Z,47.20
2019-02-26T18:00:16.708Z,47.24
2019-02-26T18:02:46.802Z,47.51
2019-02-26T18:05:15.639Z,47.46
2019-02-26T18:07:45.348Z,47.71
2019-02-26T18:10:15.294Z,47.68
2019-02-26T18:12:45.884Z,47.64
2019-02-26T18:15:17.618Z,48.37
2019-02-26T18:17:43.635Z,48.10
2019-02-26T18:20:15.638Z,48.59
2019-02-26T18:22:50.786Z,49.15
2019-02-26T18:25:19.619Z,49.06
2019-02-26T18:27:49.570Z,48.99
2019-02-26T18:30:20.082Z,49.32
2019-02-26T18:32:50.511Z,49.21
2019-02-26T18:35:19.015Z,49.42
2019-02-26T18:37:48.500Z,50.08
2019-02-26T18:40:29.322Z,50.61
2019-02-26T18:42:58.154Z,50.65
2019-02-26T18:45:27.994Z,50.76
2019-02-26T18:47:55.793Z,51.07
2019-02-26T18:50:25.775Z,51.13
2019-02-26T18:52:53.479Z,51.48
2019-02-26T18:55:22.606Z,51.74
2019-02-26T18:57:51.435Z,51.43
2019-02-26T19:00:26.597Z,51.82
2019-02-26T19:02:55.435Z,51.54
2019-02-26T19:05:25.298Z,51.94
2019-02-26T19:07:54.406Z,52.26
2019-02-26T19:10:23.896Z,52.23
2019-02-26T19:12:52.725Z,52.13
2019-02-26T19:15:21.612Z,52.28
2019-02-26T19:17:52.084Z,52.57
2019-02-26T19:20:23.406Z,52.84
2019-02-26T19:22:52.205Z,53.12
2019-02-26T19:25:21.125Z,53.22
2019-02-26T19:27:52.824Z,53.57
2019-02-26T19:30:21.198Z,53.60
2019-02-26T19:32:50.065Z,53.60
2019-02-26T19:35:18.912Z,53.64
2019-02-26T19:37:49.085Z,54.08
2019-02-26T19:40:19.305Z,54.09
2019-02-26T19:42:48.188Z,54.44
2019-02-26T19:45:17.022Z,54.46
2019-02-26T19:47:45.861Z,54.45
2019-02-26T19:50:15.191Z,55.25
2019-02-26T19:52:44.038Z,55.63
2019-02-26T19:55:16.350Z,55.31
2019-02-26T19:57:44.619Z,55.22
2019-02-26T20:00:13.497Z,55.70
2019-02-26T20:02:43.203Z,55.72
2019-02-26T20:05:12.906Z,55.88
2019-02-26T20:07:41.349Z,56.02
2019-02-26T20:10:12.881Z,56.25
2019-02-26T20:12:39.801Z,56.55
2019-02-26T20:15:09.228Z,56.14
2019-02-26T20:17:38.071Z,56.74
2019-02-26T20:20:08.086Z,56.84
2019-02-26T20:22:36.967Z,57.07
2019-02-26T20:25:07.414Z,57.38
2019-02-26T20:27:36.243Z,57.28
2019-02-26T20:30:05.993Z,57.35
2019-02-26T20:32:36.076Z,57.34
2019-02-26T20:35:04.100Z,57.72
2019-02-26T20:37:32.972Z,57.59
2019-02-26T20:40:02.448Z,58.48
2019-02-26T20:42:31.332Z,58.58
2019-02-26T20:45:00.159Z,58.76
2019-02-26T20:47:31.527Z,58.86
2019-02-26T20:50:00.060Z,59.08
2019-02-26T20:52:32.677Z,58.92
2019-02-26T20:54:57.667Z,59.02
2019-02-26T20:57:27.015Z,59.31
2019-02-26T20:59:55.812Z,59.42
2019-02-26T21:02:25.348Z,59.93
2019-02-26T21:04:54.835Z,60.28
2019-02-26T21:07:24.577Z,60.04
2019-02-26T21:09:52.413Z,60.70
2019-02-26T21:12:21.195Z,61.04
2019-02-26T21:14:50.803Z,61.28
2019-02-26T21:17:19.608Z,60.91
2019-02-26T21:19:49.449Z,61.42
2019-02-26T21:22:19.783Z,61.15
2019-02-26T21:24:47.563Z,60.98
2019-02-26T21:27:16.052Z,61.09
2019-02-26T21:29:45.674Z,60.95
2019-02-26T21:32:14.455Z,61.20
2019-02-26T21:34:47.321Z,61.37
2019-02-26T21:37:12.044Z,60.92
2019-02-26T21:39:43.544Z,61.06
2019-02-26T21:42:10.443Z,62.21
2019-02-26T21:44:41.654Z,62.24
2019-02-26T21:47:08.061Z,63.14
2019-02-26T21:49:38.165Z,63.23
2019-02-26T21:52:09.019Z,63.49
2019-02-26T21:54:37.682Z,63.97
2019-02-26T21:57:06.466Z,64.04
2019-02-26T21:59:36.237Z,64.29
2019-02-26T22:02:05.033Z,63.68
2019-02-26T22:04:34.688Z,63.81
2019-02-26T22:07:03.517Z,63.92
2019-02-26T22:09:33.001Z,63.81
2019-02-26T22:12:01.827Z,63.51
2019-02-26T22:14:30.749Z,64.03
2019-02-26T22:16:59.532Z,64.39
2019-02-26T22:19:28.315Z,63.83
2019-02-26T22:21:58.737Z,63.96
2019-02-26T22:24:27.596Z,63.80
2019-02-26T22:26:59.387Z,64.05
2019-02-26T22:29:25.305Z,64.66
2019-02-26T22:31:54.131Z,64.73
2019-02-26T22:34:22.904Z,64.85
2019-02-26T22:36:51.690Z,64.72
2019-02-26T22:39:22.773Z,65.18
2019-02-26T22:41:49.339Z,65.36
2019-02-26T22:44:21.642Z,64.97
2019-02-26T22:46:48.470Z,65.54
2019-02-26T22:49:17.769Z,65.32
2019-02-26T22:51:46.272Z,65.12
2019-02-26T22:54:15.665Z,65.59
2019-02-26T22:56:48.230Z,65.03
2019-02-26T22:59:18.002Z,65.05
2019-02-26T23:01:48.400Z,66.13
2019-02-26T23:04:19.766Z,66.19
2019-02-26T23:06:47.183Z,66.33
2019-02-26T23:09:19.659Z,65.85
2019-02-26T23:11:48.656Z,65.55
2019-02-26T23:14:17.518Z,66.37
2019-02-26T23:16:46.328Z,65.78
2019-02-26T23:19:15.166Z,66.05
2019-02-26T23:21:44.356Z,65.71
2019-02-26T23:24:13.749Z,66.51
2019-02-26T23:26:45.651Z,66.73
2019-02-26T23:29:14.450Z,66.57
2019-02-26T23:31:43.247Z,66.55
2019-02-26T23:34:12.026Z,66.57
2019-02-26T23:36:40.839Z,65.98
2019-02-26T23:39:13.321Z,66.42
2019-02-26T23:41:42.863Z,66.47
2019-02-26T23:44:11.767Z,66.58
2019-02-26T23:46:40.546Z,66.86
2019-02-26T23:49:11.731Z,65.97
2019-02-26T23:51:39.272Z,67.67
2019-02-26T23:54:08.071Z,67.13
2019-02-26T23:56:37.615Z,67.05
2019-02-26T23:59:06.371Z,66.40
